Jump to content

  •  

SOUTHWEST AIRLINES FLIGHT WN586 FLOWN ON 11-26-2017 BY CAPTAIN SUKDEO LALLMAN

Pilot StatsCaptain Sukdeo Lallman (LDP511) • 249.4 total hours • 115 total flights [View Logbook]
FLIGHT DETAILS
StatusReceived and approved on 2017-11-26 at 17:11:53
Origin AirportJose Marti Intl (MUHA) • Havana, Cuba (210 feet MSL)
Filed Flight PlanMUHA EYW J41 RSW KMCO
Destination AirportOrlando Intl (KMCO) • Orlando, Florida, United States (96 feet MSL)
Alternate AirportNone Filed
AirlineSouthwest Airlines
AircraftBoeing 737-800 | Winglets (73H / B737-800)
FS Aircraft UsedBoeing 737-8H4NGX Southwest Airlines (California One) Winglets
Cruising AltitudeFL340
Distance Flown332 nautical miles
Passengers Onboard81 passengers (50.00% full)
DEPARTURE DETAILS
Time Out15:33:16
Taxi Data129,612 lbs total with 20,657 lbs of fuel onboard
Takeoff Data15:46:30 (13 minutes after leaving gate/ramp) • 128,703 lbs total • 6° pitch at 181 knots
Departure METARMUHA 261955Z 05007KT 9000 FEW020 BKN050 27/21 Q1014
ARRIVAL DETAILS
Landing Data16:45:19 • 122,785 lbs total • 2° pitch doing 122 knots at a rate of -272.21 feet/minute with 13,590 lbs of fuel onboard
Time In16:49:26 (4 minutes after landing)
Ramp Weight122,545 lbs total
Total Fuel Used7,067 lbs
Total Block Time01:17:11 (1.3 hours) while 17 minutes were spent on the ground
Arrival METARKMCO 262153Z 36005KT 10SM FEW140 BKN250 22/09 A3003 RMK AO2 SLP169 T02170089
MISCELLANEOUS DETAILS
LiveDISPATCH Version4.8.3.1
FS Version
FSUIPC Version5.10
OS VersionWindows 7 32-bit
Screen Resolution1920 x 1080
Pilot's CommentsNo Comments Reported
FLIGHT MAP